sensor_id;sensor_type;location;lat;lon;timestamp;pressure;altitude;pressure_sealevel;temperature;humidity
61136;BME280;47021;51.340;12.432;2022-12-01T00:02:46;101162.97;;;5.74;70.32
61136;BME280;47021;51.340;12.432;2022-12-01T00:08:08;101156.56;;;5.45;70.90
61136;BME280;47021;51.340;12.432;2022-12-01T00:13:17;101154.50;;;5.33;70.93
61136;BME280;47021;51.340;12.432;2022-12-01T00:18:26;101156.94;;;5.36;71.61
61136;BME280;47021;51.340;12.432;2022-12-01T00:23:42;101151.84;;;5.35;71.50
61136;BME280;47021;51.340;12.432;2022-12-01T00:28:52;101146.00;;;5.50;70.82
61136;BME280;47021;51.340;12.432;2022-12-01T00:34:04;101144.69;;;5.21;71.40
61136;BME280;47021;51.340;12.432;2022-12-01T00:39:13;101140.19;;;5.63;69.88
61136;BME280;47021;51.340;12.432;2022-12-01T00:41:51;101139.66;;;5.18;70.95
61136;BME280;47021;51.340;12.432;2022-12-01T00:46:59;101149.28;;;4.76;72.87
61136;BME280;47021;51.340;12.432;2022-12-01T00:52:08;101146.66;;;5.72;69.77
61136;BME280;47021;51.340;12.432;2022-12-01T00:57:17;101145.41;;;5.43;70.35
61136;BME280;47021;51.340;12.432;2022-12-01T01:06:35;101157.34;;;5.09;71.12
61136;BME280;47021;51.340;12.432;2022-12-01T01:11:44;101162.94;;;5.18;71.38
61136;BME280;47021;51.340;12.432;2022-12-01T01:16:54;101163.06;;;5.54;69.86
61136;BME280;47021;51.340;12.432;2022-12-01T01:22:14;101169.75;;;5.39;70.77
61136;BME280;47021;51.340;12.432;2022-12-01T01:27:34;101167.69;;;5.66;68.95
61136;BME280;47021;51.340;12.432;2022-12-01T01:32:48;101167.69;;;5.66;68.48
61136;BME280;47021;51.340;12.432;2022-12-01T01:43:47;101162.75;;;5.23;70.17
61136;BME280;47021;51.340;12.432;2022-12-01T01:49:18;101169.97;;;4.96;70.68
61136;BME280;47021;51.340;12.432;2022-12-01T01:54:30;101160.03;;;4.87;72.10
61136;BME280;47021;51.340;12.432;2022-12-01T01:59:44;101170.41;;;5.06;71.04
61136;BME280;47021;51.340;12.432;2022-12-01T02:32:26;101155.56;;;5.48;69.69
61136;BME280;47021;51.340;12.432;2022-12-01T02:43:09;101155.97;;;5.57;68.81
61136;BME280;47021;51.340;12.432;2022-12-01T02:54:03;101162.63;;;5.44;69.62
61136;BME280;47021;51.340;12.432;2022-12-01T02:59:13;101164.69;;;4.99;71.14
61136;BME280;47021;51.340;12.432;2022-12-01T03:04:32;101163.75;;;5.39;70.22
61136;BME280;47021;51.340;12.432;2022-12-01T03:15:04;101159.97;;;5.46;69.04
61136;BME280;47021;51.340;12.432;2022-12-01T03:25:50;101171.81;;;4.74;70.66
61136;BME280;47021;51.340;12.432;2022-12-01T03:31:06;101178.88;;;4.28;71.19
61136;BME280;47021;51.340;12.432;2022-12-01T03:36:44;101179.19;;;4.21;71.99
61136;BME280;47021;51.340;12.432;2022-12-01T03:42:01;101180.81;;;4.23;72.26
61136;BME280;47021;51.340;12.432;2022-12-01T03:47:23;101181.13;;;4.58;71.63
61136;BME280;47021;51.340;12.432;2022-12-01T03:58:15;101180.19;;;4.59;70.91
61136;BME280;47021;51.340;12.432;2022-12-01T04:03:32;101183.13;;;4.51;71.42
61136;BME280;47021;51.340;12.432;2022-12-01T04:11:28;101188.88;;;4.78;70.58
61136;BME280;47021;51.340;12.432;2022-12-01T04:22:10;101197.13;;;4.66;70.79
61136;BME280;47021;51.340;12.432;2022-12-01T04:27:19;101199.38;;;4.33;71.61
61136;BME280;47021;51.340;12.432;2022-12-01T04:32:28;101195.63;;;3.52;74.59
61136;BME280;47021;51.340;12.432;2022-12-01T04:37:38;101196.47;;;3.97;73.64
61136;BME280;47021;51.340;12.432;2022-12-01T04:42:47;101201.41;;;4.25;72.17
61136;BME280;47021;51.340;12.432;2022-12-01T04:47:56;101205.97;;;4.18;72.69
61136;BME280;47021;51.340;12.432;2022-12-01T04:53:05;101217.03;;;4.00;72.89
61136;BME280;47021;51.340;12.432;2022-12-01T04:58:15;101219.53;;;3.34;74.86
61136;BME280;47021;51.340;12.432;2022-12-01T05:03:26;101222.22;;;4.00;73.08
61136;BME280;47021;51.340;12.432;2022-12-01T05:14:22;101219.53;;;4.67;71.09
61136;BME280;47021;51.340;12.432;2022-12-01T05:19:40;101217.66;;;4.28;72.46
61136;BME280;47021;51.340;12.432;2022-12-01T05:24:52;101222.69;;;4.10;72.85
61136;BME280;47021;51.340;12.432;2022-12-01T05:30:01;101228.84;;;3.38;74.98
61136;BME280;47021;51.340;12.432;2022-12-01T05:35:15;101221.75;;;4.12;73.40
61136;BME280;47021;51.340;12.432;2022-12-01T05:40:37;101234.88;;;3.62;74.66
61136;BME280;47021;51.340;12.432;2022-12-01T05:51:24;101237.56;;;4.03;73.67
61136;BME280;47021;51.340;12.432;2022-12-01T05:56:33;101238.34;;;3.84;74.04
61136;BME280;47021;51.340;12.432;2022-12-01T06:01:46;101235.22;;;3.97;74.05
61136;BME280;47021;51.340;12.432;2022-12-01T06:09:54;101234.91;;;3.83;74.28
61136;BME280;47021;51.340;12.432;2022-12-01T06:15:25;101240.97;;;3.36;75.80
61136;BME280;47021;51.340;12.432;2022-12-01T06:17:51;101243.34;;;3.88;74.27
61136;BME280;47021;51.340;12.432;2022-12-01T06:25:44;101244.63;;;3.77;73.85
61136;BME280;47021;51.340;12.432;2022-12-01T06:30:53;101248.88;;;4.01;73.37
61136;BME280;47021;51.340;12.432;2022-12-01T06:36:05;101254.31;;;4.16;73.42
61136;BME280;47021;51.340;12.432;2022-12-01T07:00:07;101246.72;;;4.12;72.86
61136;BME280;47021;51.340;12.432;2022-12-01T07:47:46;101291.72;;;3.83;75.29
61136;BME280;47021;51.340;12.432;2022-12-01T07:53:00;101292.94;;;4.19;74.86
61136;BME280;47021;51.340;12.432;2022-12-01T08:21:14;101291.56;;;4.11;74.69
61136;BME280;47021;51.340;12.432;2022-12-01T08:23:55;101293.59;;;4.03;75.02
61136;BME280;47021;51.340;12.432;2022-12-01T08:29:05;101290.31;;;4.64;73.27
61136;BME280;47021;51.340;12.432;2022-12-01T08:39:41;101304.81;;;4.02;74.70
61136;BME280;47021;51.340;12.432;2022-12-01T08:44:56;101302.16;;;4.48;73.38
61136;BME280;47021;51.340;12.432;2022-12-01T08:53:01;101308.38;;;4.44;74.04
61136;BME280;47021;51.340;12.432;2022-12-01T08:58:10;101312.88;;;4.39;73.75
61136;BME280;47021;51.340;12.432;2022-12-01T09:03:28;101311.78;;;4.45;74.01
61136;BME280;47021;51.340;12.432;2022-12-01T09:08:47;101312.16;;;4.57;73.64
61136;BME280;47021;51.340;12.432;2022-12-01T09:13:58;101316.56;;;3.87;74.29
61136;BME280;47021;51.340;12.432;2022-12-01T09:22:00;101323.66;;;4.05;74.41
61136;BME280;47021;51.340;12.432;2022-12-01T10:18:31;101299.94;;;4.39;73.19
61136;BME280;47021;51.340;12.432;2022-12-01T10:34:43;101291.75;;;4.28;72.89
61136;BME280;47021;51.340;12.432;2022-12-01T10:39:54;101282.41;;;4.89;70.96
61136;BME280;47021;51.340;12.432;2022-12-01T10:53:26;101272.94;;;4.03;73.37
61136;BME280;47021;51.340;12.432;2022-12-01T12:42:05;101229.94;;;5.06;69.65
61136;BME280;47021;51.340;12.432;2022-12-01T12:52:45;101227.66;;;4.36;71.67
61136;BME280;47021;51.340;12.432;2022-12-01T13:14:54;101223.84;;;4.86;71.38
61136;BME280;47021;51.340;12.432;2022-12-01T14:16:04;101214.88;;;4.75;70.03
61136;BME280;47021;51.340;12.432;2022-12-01T14:26:55;101212.41;;;4.92;70.25
61136;BME280;47021;51.340;12.432;2022-12-01T14:37:38;101214.28;;;4.05;72.38
61136;BME280;47021;51.340;12.432;2022-12-01T14:40:10;101203.81;;;4.29;70.86
61136;BME280;47021;51.340;12.432;2022-12-01T14:42:38;101208.19;;;4.49;71.29
61136;BME280;47021;51.340;12.432;2022-12-01T14:53:22;101206.63;;;4.65;70.54
61136;BME280;47021;51.340;12.432;2022-12-01T14:58:54;101199.78;;;4.44;70.93
61136;BME280;47021;51.340;12.432;2022-12-01T15:43:35;101202.19;;;4.69;70.91
61136;BME280;47021;51.340;12.432;2022-12-01T15:49:06;101209.91;;;4.28;72.04
61136;BME280;47021;51.340;12.432;2022-12-01T16:17:23;101225.81;;;4.40;71.12
61136;BME280;47021;51.340;12.432;2022-12-01T16:22:34;101219.38;;;4.70;70.75
61136;BME280;47021;51.340;12.432;2022-12-01T16:27:53;101218.09;;;4.80;70.55
61136;BME280;47021;51.340;12.432;2022-12-01T16:55:14;101227.00;;;4.31;71.37
61136;BME280;47021;51.340;12.432;2022-12-01T17:06:19;101229.00;;;4.24;71.50
61136;BME280;47021;51.340;12.432;2022-12-01T18:18:12;101242.19;;;3.95;72.30
61136;BME280;47021;51.340;12.432;2022-12-01T18:23:26;101246.72;;;4.12;72.10
61136;BME280;47021;51.340;12.432;2022-12-01T18:28:35;101247.31;;;3.74;72.51
61136;BME280;47021;51.340;12.432;2022-12-01T18:31:05;101236.69;;;4.48;70.44
61136;BME280;47021;51.340;12.432;2022-12-01T18:36:16;101231.50;;;4.48;70.39
61136;BME280;47021;51.340;12.432;2022-12-01T18:41:35;101238.59;;;3.99;71.70
61136;BME280;47021;51.340;12.432;2022-12-01T18:46:44;101229.41;;;4.14;71.97
61136;BME280;47021;51.340;12.432;2022-12-01T18:51:57;101222.19;;;4.44;70.48
61136;BME280;47021;51.340;12.432;2022-12-01T18:57:26;101233.91;;;4.09;72.14
61136;BME280;47021;51.340;12.432;2022-12-01T19:02:35;101223.94;;;4.43;70.79
61136;BME280;47021;51.340;12.432;2022-12-01T19:13:12;101229.03;;;3.80;72.02
61136;BME280;47021;51.340;12.432;2022-12-01T19:18:27;101225.13;;;3.91;72.33
61136;BME280;47021;51.340;12.432;2022-12-01T19:23:42;101219.81;;;4.39;70.73
61136;BME280;47021;51.340;12.432;2022-12-01T19:31:59;101221.78;;;4.33;70.66
61136;BME280;47021;51.340;12.432;2022-12-01T20:13:19;101221.84;;;4.09;70.71
61136;BME280;47021;51.340;12.432;2022-12-01T20:18:28;101229.81;;;4.03;72.24
61136;BME280;47021;51.340;12.432;2022-12-01T20:23:37;101226.81;;;3.69;72.28
61136;BME280;47021;51.340;12.432;2022-12-01T20:28:52;101223.16;;;3.98;72.23
61136;BME280;47021;51.340;12.432;2022-12-01T20:34:04;101224.66;;;4.25;71.46
61136;BME280;47021;51.340;12.432;2022-12-01T20:39:19;101215.72;;;4.12;71.37
61136;BME280;47021;51.340;12.432;2022-12-01T20:44:29;101213.56;;;4.23;71.68
61136;BME280;47021;51.340;12.432;2022-12-01T20:49:45;101212.88;;;4.18;71.20
61136;BME280;47021;51.340;12.432;2022-12-01T20:54:53;101214.25;;;4.26;71.30
61136;BME280;47021;51.340;12.432;2022-12-01T21:00:03;101215.09;;;3.84;72.49
61136;BME280;47021;51.340;12.432;2022-12-01T21:05:12;101214.38;;;3.80;72.42
61136;BME280;47021;51.340;12.432;2022-12-01T21:10:28;101214.19;;;3.85;72.46
61136;BME280;47021;51.340;12.432;2022-12-01T21:15:40;101213.88;;;3.92;72.65
61136;BME280;47021;51.340;12.432;2022-12-01T21:20:55;101210.75;;;4.07;72.30
61136;BME280;47021;51.340;12.432;2022-12-01T21:26:08;101202.31;;;4.66;71.48
61136;BME280;47021;51.340;12.432;2022-12-01T21:31:24;101194.50;;;4.04;72.75
61136;BME280;47021;51.340;12.432;2022-12-01T21:36:35;101195.94;;;4.33;70.99
61136;BME280;47021;51.340;12.432;2022-12-01T21:41:44;101189.84;;;4.55;70.97
61136;BME280;47021;51.340;12.432;2022-12-01T21:46:54;101180.06;;;4.20;72.12
61136;BME280;47021;51.340;12.432;2022-12-01T21:52:17;101184.69;;;3.90;72.95
61136;BME280;47021;51.340;12.432;2022-12-01T21:57:32;101183.28;;;4.05;72.15
61136;BME280;47021;51.340;12.432;2022-12-01T22:02:57;101186.16;;;4.19;71.63
61136;BME280;47021;51.340;12.432;2022-12-01T22:13:23;101180.06;;;3.77;73.22
61136;BME280;47021;51.340;12.432;2022-12-01T22:18:35;101176.41;;;4.04;72.75
61136;BME280;47021;51.340;12.432;2022-12-01T22:23:45;101177.38;;;3.80;72.86
61136;BME280;47021;51.340;12.432;2022-12-01T22:29:00;101176.34;;;3.84;72.78
61136;BME280;47021;51.340;12.432;2022-12-01T22:34:09;101170.13;;;3.89;72.91
61136;BME280;47021;51.340;12.432;2022-12-01T22:39:24;101173.44;;;3.70;73.52
61136;BME280;47021;51.340;12.432;2022-12-01T22:44:36;101168.41;;;3.67;73.51
61136;BME280;47021;51.340;12.432;2022-12-01T22:49:45;101170.66;;;3.52;74.02
61136;BME280;47021;51.340;12.432;2022-12-01T22:54:54;101165.09;;;3.63;73.46
61136;BME280;47021;51.340;12.432;2022-12-01T23:00:16;101162.00;;;3.98;72.87
61136;BME280;47021;51.340;12.432;2022-12-01T23:05:28;101154.03;;;4.24;71.93
61136;BME280;47021;51.340;12.432;2022-12-01T23:10:37;101154.19;;;4.00;72.59
61136;BME280;47021;51.340;12.432;2022-12-01T23:15:48;101146.03;;;3.89;73.57
61136;BME280;47021;51.340;12.432;2022-12-01T23:20:58;101147.31;;;4.20;72.55
61136;BME280;47021;51.340;12.432;2022-12-01T23:26:08;101149.38;;;4.12;73.23
61136;BME280;47021;51.340;12.432;2022-12-01T23:31:17;101142.16;;;3.99;73.03
61136;BME280;47021;51.340;12.432;2022-12-01T23:36:29;101137.34;;;3.68;73.79
61136;BME280;47021;51.340;12.432;2022-12-01T23:41:39;101124.50;;;3.88;73.52
61136;BME280;47021;51.340;12.432;2022-12-01T23:46:50;101126.66;;;3.99;73.78
61136;BME280;47021;51.340;12.432;2022-12-01T23:52:00;101131.88;;;3.97;73.34
61136;BME280;47021;51.340;12.432;2022-12-01T23:57:20;101118.06;;;3.77;73.98
